Time,TemperatureF,DewpointF,PressureIn,WindDirection,WindDirectionDegrees,WindSpeedMPH,WindSpeedGustMPH,Humidity,HourlyPrecipIn,Conditions,Clouds,dailyrainin,SoftwareType,DateUTC
2013-07-24 00:01:00,63.9,62.7,29.09,ENE,68,0.0,0.0,96,0.00,,---,0.00,VWS V14.01,2013-07-24 04:01:00,
2013-07-24 00:03:00,63.9,62.7,29.09,ENE,68,0.0,0.0,96,0.00,,---,0.00,VWS V14.01,2013-07-24 04:03:00,
2013-07-24 00:05:00,63.9,62.7,29.09,ENE,68,0.0,0.0,96,0.00,,---,0.00,VWS V14.01,2013-07-24 04:05:00,
2013-07-24 00:06:00,63.9,62.7,29.09,ENE,68,0.0,0.0,96,0.00,,---,0.00,VWS V14.01,2013-07-24 04:06:00,
2013-07-24 00:07:00,63.9,62.7,29.09,ENE,68,0.0,0.0,96,0.00,,---,0.00,VWS V14.01,2013-07-24 04:07:00,
2013-07-24 00:12:00,63.9,63.0,29.09,ENE,68,0.0,0.0,97,0.00,,---,0.00,VWS V14.01,2013-07-24 04:12:00,
2013-07-24 00:18:00,63.7,62.8,29.09,ENE,68,0.0,0.0,97,0.00,,---,0.00,VWS V14.01,2013-07-24 04:18:00,
2013-07-24 00:24:00,63.5,62.3,29.09,ENE,68,0.0,0.0,96,0.00,,---,0.00,VWS V14.01,2013-07-24 04:24:00,
2013-07-24 00:29:00,63.3,62.2,29.09,ENE,68,0.0,0.0,96,0.00,,---,0.00,VWS V14.01,2013-07-24 04:29:00,
2013-07-24 00:35:00,63.1,62.0,29.09,ENE,68,0.0,0.0,96,0.00,,---,0.00,VWS V14.01,2013-07-24 04:35:00,
2013-07-24 00:40:00,63.0,61.8,29.09,ENE,68,0.0,0.0,96,0.00,,---,0.00,VWS V14.01,2013-07-24 04:40:00,
2013-07-24 00:45:00,63.0,61.8,29.09,ENE,68,0.0,0.0,96,0.00,,---,0.00,VWS V14.01,2013-07-24 04:45:00,
2013-07-24 00:51:00,62.6,61.5,29.09,NW,315,0.0,0.0,96,0.00,,---,0.00,VWS V14.01,2013-07-24 04:51:00,
2013-07-24 01:02:00,62.6,61.5,29.09,WNW,292,0.0,0.0,96,0.00,,---,0.00,VWS V14.01,2013-07-24 05:02:00,
2013-07-24 01:07:00,62.4,61.6,29.09,WNW,292,0.0,0.0,97,0.00,,---,0.00,VWS V14.01,2013-07-24 05:07:00,
2013-07-24 01:12:00,62.2,61.4,29.06,WNW,292,0.0,0.0,97,0.00,,---,0.00,VWS V14.01,2013-07-24 05:12:00,
2013-07-24 01:18:00,62.2,61.4,29.06,WNW,292,0.0,0.0,97,0.00,,---,0.00,VWS V14.01,2013-07-24 05:18:00,
2013-07-24 01:24:00,62.1,61.2,29.06,WNW,292,0.0,0.0,97,0.00,,---,0.00,VWS V14.01,2013-07-24 05:24:00,
2013-07-24 01:29:00,62.1,61.2,29.06,WNW,292,0.0,0.0,97,0.00,,---,0.00,VWS V14.01,2013-07-24 05:29:00,
2013-07-24 01:34:00,62.1,61.2,29.06,West,270,0.0,0.0,97,0.00,,---,0.00,VWS V14.01,2013-07-24 05:34:00,
2013-07-24 01:39:00,62.1,61.2,29.06,West,270,0.0,0.0,97,0.00,,---,0.00,VWS V14.01,2013-07-24 05:39:00,
2013-07-24 01:45:00,61.9,61.0,29.06,West,270,0.0,0.0,97,0.00,,---,0.00,VWS V14.01,2013-07-24 05:45:00,
2013-07-24 01:51:00,61.7,60.8,29.06,West,270,0.0,0.0,97,0.00,,---,0.00,VWS V14.01,2013-07-24 05:51:00,
2013-07-24 01:56:00,61.7,60.8,29.06,West,270,0.0,0.0,97,0.00,,---,0.00,VWS V14.01,2013-07-24 05:56:00,
2013-07-24 02:02:00,61.7,60.8,29.06,NW,315,0.0,0.0,97,0.00,,---,0.00,VWS V14.01,2013-07-24 06:02:00,
2013-07-24 02:08:00,61.7,60.8,29.06,WNW,292,0.0,0.0,97,0.00,,---,0.00,VWS V14.01,2013-07-24 06:08:00,
2013-07-24 02:14:00,61.5,60.7,29.06,WNW,292,0.0,0.0,97,0.00,,---,0.00,VWS V14.01,2013-07-24 06:14:00,
2013-07-24 02:20:00,61.5,60.7,29.06,NW,315,0.0,0.0,97,0.00,,---,0.00,VWS V14.01,2013-07-24 06:20:00,
2013-07-24 02:25:00,61.5,60.7,29.06,NW,315,0.0,0.0,97,0.00,,---,0.00,VWS V14.01,2013-07-24 06:25:00,
2013-07-24 02:31:00,61.5,60.7,29.06,NW,315,0.0,0.0,97,0.00,,---,0.00,VWS V14.01,2013-07-24 06:31:00,
2013-07-24 02:37:00,61.3,60.5,29.06,NW,315,0.0,0.0,97,0.00,,---,0.00,VWS V14.01,2013-07-24 06:37:00,
2013-07-24 02:42:00,61.3,60.5,29.06,NW,315,0.0,0.0,97,0.00,,---,0.00,VWS V14.01,2013-07-24 06:42:00,
2013-07-24 02:48:00,61.5,61.0,29.06,NW,315,0.0,0.0,98,0.00,,---,0.00,VWS V14.01,2013-07-24 06:48:00,
2013-07-24 02:53:00,61.3,60.8,29.06,NW,315,0.0,0.0,98,0.00,,---,0.00,VWS V14.01,2013-07-24 06:53:00,
2013-07-24 02:59:00,61.3,60.8,29.06,NW,315,0.0,0.0,98,0.00,,---,0.00,VWS V14.01,2013-07-24 06:59:00,
2013-07-24 03:04:00,61.3,60.8,29.06,NW,315,0.0,0.0,98,0.00,,---,0.00,VWS V14.01,2013-07-24 07:04:00,
2013-07-24 03:10:00,61.2,60.6,29.09,NW,315,0.0,0.0,98,0.00,,---,0.00,VWS V14.01,2013-07-24 07:10:00,
2013-07-24 03:15:00,61.2,60.6,29.09,NW,315,0.0,0.0,98,0.00,,---,0.00,VWS V14.01,2013-07-24 07:15:00,
2013-07-24 03:21:00,61.2,60.6,29.09,NW,315,0.0,0.0,98,0.00,,---,0.00,VWS V14.01,2013-07-24 07:21:00,
2013-07-24 03:27:00,61.2,60.6,29.06,NW,315,0.0,0.0,98,0.00,,---,0.00,VWS V14.01,2013-07-24 07:27:00,
2013-07-24 03:33:00,61.0,60.4,29.06,NW,315,0.0,0.0,98,0.00,,---,0.00,VWS V14.01,2013-07-24 07:33:00,
2013-07-24 03:39:00,61.2,60.6,29.06,NW,315,0.0,0.0,98,0.00,,---,0.00,VWS V14.01,2013-07-24 07:39:00,
2013-07-24 03:45:00,61.2,60.6,29.06,NW,315,0.0,0.0,98,0.00,,---,0.00,VWS V14.01,2013-07-24 07:45:00,
2013-07-24 03:50:00,61.3,60.8,29.06,NW,315,0.0,0.0,98,0.00,,---,0.00,VWS V14.01,2013-07-24 07:50:00,
2013-07-24 03:55:00,61.3,60.8,29.09,NW,315,0.0,0.0,98,0.00,,---,0.00,VWS V14.01,2013-07-24 07:55:00,
2013-07-24 04:01:00,61.5,61.0,29.09,NW,315,0.0,0.0,98,0.00,,---,0.00,VWS V14.01,2013-07-24 08:01:00,
2013-07-24 04:06:00,61.5,61.0,29.09,NW,315,0.0,0.0,98,0.00,,---,0.00,VWS V14.01,2013-07-24 08:06:00,
2013-07-24 04:12:00,61.7,61.1,29.09,NW,315,0.0,0.0,98,0.00,,---,0.00,VWS V14.01,2013-07-24 08:12:00,
2013-07-24 04:17:00,61.7,61.1,29.09,NW,315,0.0,0.0,98,0.00,,---,0.00,VWS V14.01,2013-07-24 08:17:00,
2013-07-24 04:23:00,61.9,61.3,29.09,NW,315,0.0,0.0,98,0.00,,---,0.00,VWS V14.01,2013-07-24 08:23:00,
2013-07-24 04:28:00,61.9,61.3,29.09,NW,315,0.0,0.0,98,0.00,,---,0.00,VWS V14.01,2013-07-24 08:28:00,
2013-07-24 04:34:00,61.9,61.3,29.09,NW,315,0.0,0.0,98,0.00,,---,0.00,VWS V14.01,2013-07-24 08:34:00,
2013-07-24 04:40:00,62.1,61.5,29.06,NW,315,0.0,0.0,98,0.00,,---,0.00,VWS V14.01,2013-07-24 08:40:00,
2013-07-24 04:45:00,62.1,61.5,29.06,NW,315,0.0,0.0,98,0.00,,---,0.00,VWS V14.01,2013-07-24 08:45:00,
2013-07-24 04:51:00,62.2,61.7,29.06,NW,315,0.0,0.0,98,0.00,,---,0.00,VWS V14.01,2013-07-24 08:51:00,
2013-07-24 04:56:00,62.2,61.7,29.09,NW,315,0.0,0.0,98,0.00,,---,0.00,VWS V14.01,2013-07-24 08:56:00,
2013-07-24 05:02:00,62.2,61.7,29.09,NW,315,0.0,0.0,98,0.00,,---,0.00,VWS V14.01,2013-07-24 09:02:00,
2013-07-24 05:07:00,62.2,61.7,29.09,NW,315,0.0,0.0,98,0.00,,---,0.00,VWS V14.01,2013-07-24 09:07:00,
2013-07-24 05:12:00,62.2,61.7,29.09,NW,315,0.0,0.0,98,0.00,,---,0.00,VWS V14.01,2013-07-24 09:12:00,
2013-07-24 05:18:00,62.4,61.8,29.09,NW,315,0.0,0.0,98,0.00,,---,0.00,VWS V14.01,2013-07-24 09:18:00,
2013-07-24 05:23:00,62.4,61.8,29.09,NW,315,0.0,0.0,98,0.00,,---,0.00,VWS V14.01,2013-07-24 09:23:00,
2013-07-24 05:29:00,62.6,62.0,29.09,NW,315,0.0,0.0,98,0.00,,---,0.00,VWS V14.01,2013-07-24 09:29:00,
2013-07-24 05:35:00,62.6,62.0,29.09,NW,315,0.0,0.0,98,0.00,,---,0.00,VWS V14.01,2013-07-24 09:35:00,
2013-07-24 05:36:00,62.6,62.0,29.09,NW,315,0.0,0.0,98,0.00,,---,0.00,VWS V14.01,2013-07-24 09:36:00,
2013-07-24 05:41:00,62.6,62.0,29.09,NW,315,0.0,0.0,98,0.00,,---,0.00,VWS V14.01,2013-07-24 09:41:00,
2013-07-24 05:47:00,62.8,62.2,29.09,NW,315,0.0,0.0,98,0.00,,---,0.00,VWS V14.01,2013-07-24 09:47:00,
2013-07-24 05:52:00,63.0,62.4,29.09,NW,315,0.0,0.0,98,0.00,,---,0.00,VWS V14.01,2013-07-24 09:52:00,
2013-07-24 05:58:00,63.0,62.4,29.09,NW,315,0.0,0.0,98,0.00,,---,0.00,VWS V14.01,2013-07-24 09:58:00,
2013-07-24 06:04:00,63.1,62.6,29.09,NW,315,0.0,0.0,98,0.00,,---,0.00,VWS V14.01,2013-07-24 10:04:00,
2013-07-24 06:09:00,63.3,62.8,29.09,NW,315,0.0,0.0,98,0.00,,---,0.00,VWS V14.01,2013-07-24 10:09:00,
2013-07-24 06:14:00,63.5,62.9,29.09,NW,315,0.0,0.0,98,0.00,,---,0.00,VWS V14.01,2013-07-24 10:14:00,
2013-07-24 06:19:00,63.5,62.9,29.09,NW,315,0.0,0.0,98,0.00,,---,0.00,VWS V14.01,2013-07-24 10:19:00,
2013-07-24 06:24:00,63.7,63.1,29.09,NW,315,0.0,0.0,98,0.00,,---,0.00,VWS V14.01,2013-07-24 10:24:00,
2013-07-24 06:29:00,63.9,63.3,29.09,NW,315,0.0,0.0,98,0.00,,---,0.00,VWS V14.01,2013-07-24 10:29:00,
2013-07-24 06:35:00,63.9,63.3,29.09,NW,315,0.0,0.0,98,0.00,,---,0.00,VWS V14.01,2013-07-24 10:35:00,
2013-07-24 06:40:00,64.0,63.5,29.09,NW,315,0.0,0.0,98,0.00,,---,0.00,VWS V14.01,2013-07-24 10:40:00,
2013-07-24 06:46:00,64.2,63.7,29.09,NW,315,0.0,0.0,98,0.00,,---,0.00,VWS V14.01,2013-07-24 10:46:00,
2013-07-24 06:52:00,64.4,63.8,29.09,NW,315,0.0,0.0,98,0.00,,---,0.00,VWS V14.01,2013-07-24 10:52:00,
2013-07-24 06:58:00,64.8,64.2,29.09,NNW,338,0.0,0.0,98,0.00,,---,0.00,VWS V14.01,2013-07-24 10:58:00,
2013-07-24 07:04:00,64.9,64.4,29.09,NW,315,0.0,0.0,98,0.00,,---,0.00,VWS V14.01,2013-07-24 11:04:00,
2013-07-24 07:10:00,65.1,64.5,29.09,WNW,292,0.0,0.0,98,0.00,,---,0.00,VWS V14.01,2013-07-24 11:10:00,
2013-07-24 07:15:00,65.3,64.7,29.09,WNW,292,0.0,0.0,98,0.00,,---,0.00,VWS V14.01,2013-07-24 11:15:00,
2013-07-24 07:21:00,65.5,64.9,29.09,NNW,338,0.0,0.0,98,0.00,,---,0.00,VWS V14.01,2013-07-24 11:21:00,
2013-07-24 07:26:00,65.8,65.3,29.09,WNW,292,0.0,0.0,98,0.00,,---,0.00,VWS V14.01,2013-07-24 11:26:00,
2013-07-24 07:31:00,66.0,65.4,29.09,SSW,202,0.0,0.0,98,0.00,,---,0.00,VWS V14.01,2013-07-24 11:31:00,
2013-07-24 07:36:00,66.4,65.8,29.09,SSW,202,0.0,0.0,98,0.00,,---,0.00,VWS V14.01,2013-07-24 11:36:00,
2013-07-24 07:42:00,66.6,66.0,29.09,WNW,292,0.0,0.0,98,0.00,,---,0.00,VWS V14.01,2013-07-24 11:42:00,
2013-07-24 07:47:00,66.7,66.2,29.09,NW,315,0.0,0.0,98,0.00,,---,0.00,VWS V14.01,2013-07-24 11:47:00,
2013-07-24 07:53:00,66.9,66.0,29.09,NNE,22,0.0,0.0,97,0.00,,---,0.00,VWS V14.01,2013-07-24 11:53:00,
2013-07-24 07:59:00,67.3,66.4,29.09,NNE,22,0.0,0.0,97,0.00,,---,0.00,VWS V14.01,2013-07-24 11:59:00,
2013-07-24 08:04:00,67.5,66.6,29.09,NNE,22,0.0,2.0,97,0.00,,---,0.00,VWS V14.01,2013-07-24 12:04:00,
2013-07-24 08:10:00,67.5,66.3,29.09,NNE,22,0.0,0.0,96,0.00,,---,0.00,VWS V14.01,2013-07-24 12:10:00,
2013-07-24 08:15:00,67.5,66.0,29.09,SW,225,0.0,1.3,95,0.00,,---,0.00,VWS V14.01,2013-07-24 12:15:00,
2013-07-24 08:21:00,67.3,65.8,29.09,West,270,0.0,0.0,95,0.00,,---,0.00,VWS V14.01,2013-07-24 12:21:00,
2013-07-24 08:26:00,67.3,65.8,29.09,WSW,248,0.0,0.9,95,0.00,,---,0.00,VWS V14.01,2013-07-24 12:26:00,
2013-07-24 08:32:00,67.5,66.0,29.09,WSW,248,0.9,1.1,95,0.00,,---,0.00,VWS V14.01,2013-07-24 12:32:00,
2013-07-24 08:38:00,67.3,65.5,29.12,NNW,338,0.0,0.0,94,0.00,,---,0.00,VWS V14.01,2013-07-24 12:38:00,
2013-07-24 08:43:00,67.3,65.5,29.12,NW,315,0.0,0.0,94,0.00,,---,0.00,VWS V14.01,2013-07-24 12:43:00,
2013-07-24 08:49:00,67.3,65.5,29.12,NNW,338,0.0,0.0,94,0.00,,---,0.00,VWS V14.01,2013-07-24 12:49:00,
2013-07-24 08:54:00,67.6,66.2,29.12,North,0,0.0,0.0,95,0.00,,---,0.00,VWS V14.01,2013-07-24 12:54:00,
2013-07-24 09:00:00,67.8,66.3,29.12,North,0,0.0,0.9,95,0.00,,---,0.00,VWS V14.01,2013-07-24 13:00:00,
2013-07-24 09:06:00,68.0,66.2,29.12,North,0,0.0,0.0,94,0.00,,---,0.00,VWS V14.01,2013-07-24 13:06:00,
2013-07-24 09:11:00,68.4,66.6,29.12,North,0,1.1,1.1,94,0.00,,---,0.00,VWS V14.01,2013-07-24 13:11:00,
2013-07-24 09:16:00,68.7,66.9,29.12,WNW,292,2.0,2.2,94,0.00,,---,0.00,VWS V14.01,2013-07-24 13:16:00,
2013-07-24 09:21:00,69.3,67.5,29.12,North,0,0.0,1.6,94,0.00,,---,0.00,VWS V14.01,2013-07-24 13:21:00,
2013-07-24 09:27:00,69.4,67.6,29.12,South,180,1.1,1.1,94,0.00,,---,0.00,VWS V14.01,2013-07-24 13:27:00,
2013-07-24 09:32:00,69.4,67.6,29.12,East,90,0.0,2.2,94,0.00,,---,0.00,VWS V14.01,2013-07-24 13:32:00,
2013-07-24 09:38:00,69.4,67.6,29.12,NNW,338,0.0,1.1,94,0.00,,---,0.00,VWS V14.01,2013-07-24 13:38:00,
2013-07-24 09:43:00,70.7,68.3,29.12,NE,45,2.0,2.0,92,0.00,,---,0.00,VWS V14.01,2013-07-24 13:43:00,
2013-07-24 09:49:00,71.2,68.5,29.12,NE,45,0.0,0.0,91,0.00,,---,0.00,VWS V14.01,2013-07-24 13:49:00,
2013-07-24 09:54:00,71.4,68.7,29.12,NNE,22,2.5,2.5,91,0.00,,---,0.00,VWS V14.01,2013-07-24 13:54:00,
2013-07-24 10:00:00,72.0,68.9,29.12,SSE,158,2.0,2.0,90,0.00,,---,0.00,VWS V14.01,2013-07-24 14:00:00,
2013-07-24 10:06:00,72.9,69.8,29.12,West,270,2.5,2.5,90,0.00,,---,0.00,VWS V14.01,2013-07-24 14:06:00,
2013-07-24 10:11:00,73.4,70.0,29.12,East,90,1.6,2.2,89,0.00,,---,0.00,VWS V14.01,2013-07-24 14:11:00,
2013-07-24 10:16:00,73.9,70.2,29.12,North,0,1.3,1.3,88,0.00,,---,0.00,VWS V14.01,2013-07-24 14:16:00,
2013-07-24 10:22:00,74.1,70.3,29.12,ENE,68,0.0,2.7,88,0.00,,---,0.00,VWS V14.01,2013-07-24 14:22:00,
2013-07-24 10:28:00,74.7,70.5,29.12,ESE,112,2.9,3.4,87,0.00,,---,0.00,VWS V14.01,2013-07-24 14:28:00,
2013-07-24 10:34:00,74.8,70.4,29.12,ENE,68,1.3,1.6,86,0.00,,---,0.00,VWS V14.01,2013-07-24 14:34:00,
2013-07-24 10:39:00,75.0,70.2,29.12,South,180,2.0,2.7,85,0.00,,---,0.00,VWS V14.01,2013-07-24 14:39:00,
2013-07-24 10:45:00,75.2,70.0,29.12,NE,45,0.0,2.2,84,0.00,,---,0.00,VWS V14.01,2013-07-24 14:45:00,
2013-07-24 10:51:00,75.4,69.9,29.12,NW,315,2.0,2.5,83,0.00,,---,0.00,VWS V14.01,2013-07-24 14:51:00,
2013-07-24 10:56:00,75.4,69.5,29.12,SE,135,4.7,4.7,82,0.00,,---,0.00,VWS V14.01,2013-07-24 14:56:00,
2013-07-24 11:02:00,75.7,69.9,29.12,West,270,0.0,1.3,82,0.00,,---,0.00,VWS V14.01,2013-07-24 15:02:00,
2013-07-24 11:07:00,76.3,70.0,29.12,NNW,338,0.0,1.6,81,0.00,,---,0.00,VWS V14.01,2013-07-24 15:07:00,
2013-07-24 11:12:00,76.8,70.2,29.12,North,0,3.4,3.4,80,0.00,,---,0.00,VWS V14.01,2013-07-24 15:12:00,
2013-07-24 11:17:00,77.5,69.8,29.12,NNE,22,1.1,2.2,77,0.00,,---,0.00,VWS V14.01,2013-07-24 15:17:00,
2013-07-24 11:23:00,78.4,70.2,29.12,SSE,158,0.9,2.0,76,0.00,,---,0.00,VWS V14.01,2013-07-24 15:23:00,
2013-07-24 11:28:00,78.6,70.0,29.12,NW,315,0.0,0.0,75,0.00,,---,0.00,VWS V14.01,2013-07-24 15:28:00,
2013-07-24 11:34:00,78.6,70.4,29.12,North,0,0.0,1.6,76,0.00,,---,0.00,VWS V14.01,2013-07-24 15:34:00,
2013-07-24 11:40:00,78.8,69.4,29.12,North,0,0.0,0.0,73,0.00,,---,0.00,VWS V14.01,2013-07-24 15:40:00,
2013-07-24 11:45:00,79.0,69.6,29.12,West,270,0.0,0.0,73,0.00,,---,0.00,VWS V14.01,2013-07-24 15:45:00,
2013-07-24 11:51:00,79.3,68.3,29.12,NNW,338,0.0,2.0,69,0.00,,---,0.00,VWS V14.01,2013-07-24 15:51:00,
2013-07-24 11:56:00,80.1,66.3,29.12,NNW,338,2.0,6.0,63,0.00,,---,0.00,VWS V14.01,2013-07-24 15:56:00,
2013-07-24 12:02:00,79.7,62.6,29.12,SW,225,3.8,3.8,56,0.00,,---,0.00,VWS V14.01,2013-07-24 16:02:00,
2013-07-24 12:08:00,79.5,64.9,29.12,WSW,248,2.2,2.7,61,0.00,,---,0.00,VWS V14.01,2013-07-24 16:08:00,
2013-07-24 12:14:00,79.0,63.4,29.12,SW,225,2.7,3.1,59,0.00,,---,0.00,VWS V14.01,2013-07-24 16:14:00,
2013-07-24 12:20:00,78.6,63.1,29.12,South,180,1.1,2.7,59,0.00,,---,0.00,VWS V14.01,2013-07-24 16:20:00,
2013-07-24 12:26:00,78.4,61.0,29.14,WNW,292,4.3,4.3,55,0.00,,---,0.00,VWS V14.01,2013-07-24 16:26:00,
2013-07-24 12:31:00,77.5,60.1,29.14,ESE,112,2.9,8.7,55,0.00,,---,0.00,VWS V14.01,2013-07-24 16:31:00,
2013-07-24 12:37:00,76.8,58.9,29.14,West,270,1.3,3.1,54,0.00,,---,0.00,VWS V14.01,2013-07-24 16:37:00,
2013-07-24 12:43:00,76.3,60.4,29.14,SSE,158,2.0,3.1,58,0.00,,---,0.00,VWS V14.01,2013-07-24 16:43:00,
2013-07-24 12:48:00,75.9,60.6,29.14,WNW,292,3.1,4.0,59,0.00,,---,0.00,VWS V14.01,2013-07-24 16:48:00,
2013-07-24 12:54:00,76.3,60.9,29.14,SSE,158,2.7,2.7,59,0.00,,---,0.00,VWS V14.01,2013-07-24 16:54:00,
2013-07-24 12:59:00,76.6,61.2,29.14,North,0,3.6,3.6,59,0.00,,---,0.00,VWS V14.01,2013-07-24 16:59:00,
2013-07-24 13:05:00,76.5,60.1,29.14,NW,315,2.7,3.6,57,0.00,,---,0.00,VWS V14.01,2013-07-24 17:05:00,
2013-07-24 13:11:00,76.1,59.3,29.14,NNE,22,1.3,4.3,56,0.00,,---,0.00,VWS V14.01,2013-07-24 17:11:00,
2013-07-24 13:16:00,75.6,58.8,29.14,South,180,3.6,4.3,56,0.00,,---,0.00,VWS V14.01,2013-07-24 17:16:00,
2013-07-24 13:21:00,74.8,58.1,29.14,SW,225,3.4,3.4,56,0.00,,---,0.00,VWS V14.01,2013-07-24 17:21:00,
2013-07-24 13:27:00,74.3,57.1,29.17,South,180,4.0,4.0,55,0.00,,---,0.00,VWS V14.01,2013-07-24 17:27:00,
2013-07-24 13:33:00,74.3,57.6,29.17,SSE,158,1.6,3.1,56,0.00,,---,0.00,VWS V14.01,2013-07-24 17:33:00,
2013-07-24 13:39:00,73.9,56.8,29.17,North,0,2.0,2.0,55,0.00,,---,0.00,VWS V14.01,2013-07-24 17:39:00,
2013-07-24 13:44:00,73.9,57.3,29.14,North,0,2.0,2.0,56,0.00,,---,0.00,VWS V14.01,2013-07-24 17:44:00,
2013-07-24 13:50:00,73.6,57.4,29.14,ENE,68,2.9,2.9,57,0.00,,---,0.00,VWS V14.01,2013-07-24 17:50:00,
2013-07-24 13:55:00,73.4,57.3,29.17,SSW,202,2.9,3.6,57,0.00,,---,0.00,VWS V14.01,2013-07-24 17:55:00,
2013-07-24 14:01:00,74.3,58.6,29.17,NNE,22,4.3,4.3,58,0.00,,---,0.00,VWS V14.01,2013-07-24 18:01:00,
2013-07-24 14:07:00,75.6,59.3,29.17,NNW,338,1.6,2.9,57,0.00,,---,0.00,VWS V14.01,2013-07-24 18:07:00,
2013-07-24 14:12:00,75.9,58.1,29.17,NNE,22,1.6,2.0,54,0.00,,---,0.00,VWS V14.01,2013-07-24 18:12:00,
2013-07-24 14:18:00,75.2,54.2,29.17,WSW,248,2.7,4.0,48,0.00,,---,0.00,VWS V14.01,2013-07-24 18:18:00,
2013-07-24 14:23:00,75.0,55.7,29.17,NNE,22,0.9,3.1,51,0.00,,---,0.00,VWS V14.01,2013-07-24 18:23:00,
2013-07-24 14:29:00,75.0,56.2,29.17,NE,45,6.0,6.0,52,0.00,,---,0.00,VWS V14.01,2013-07-24 18:29:00,
2013-07-24 14:34:00,74.5,55.2,29.17,WNW,292,6.7,6.7,51,0.00,,---,0.00,VWS V14.01,2013-07-24 18:34:00,
2013-07-24 14:39:00,74.7,54.8,29.17,WSW,248,1.6,4.3,50,0.00,,---,0.00,VWS V14.01,2013-07-24 18:39:00,
2013-07-24 14:45:00,74.5,54.1,29.17,NNE,22,4.9,6.0,49,0.00,,---,0.00,VWS V14.01,2013-07-24 18:45:00,
2013-07-24 14:50:00,74.5,53.5,29.17,SSE,158,2.2,4.0,48,0.00,,---,0.00,VWS V14.01,2013-07-24 18:50:00,
2013-07-24 14:56:00,74.8,53.8,29.17,ESE,112,2.5,7.6,48,0.00,,---,0.00,VWS V14.01,2013-07-24 18:56:00,
2013-07-24 15:01:00,74.8,53.3,29.17,SW,225,2.9,4.0,47,0.00,,---,0.00,VWS V14.01,2013-07-24 19:01:00,
2013-07-24 15:07:00,74.5,54.1,29.17,SW,225,3.1,3.1,49,0.00,,---,0.00,VWS V14.01,2013-07-24 19:07:00,
2013-07-24 15:13:00,75.0,54.6,29.17,NNE,22,3.4,5.4,49,0.00,,---,0.00,VWS V14.01,2013-07-24 19:13:00,
2013-07-24 15:18:00,75.7,55.2,29.17,WSW,248,1.3,4.9,49,0.00,,---,0.00,VWS V14.01,2013-07-24 19:18:00,
2013-07-24 15:24:00,75.9,52.5,29.17,SSW,202,2.0,2.5,44,0.00,,---,0.00,VWS V14.01,2013-07-24 19:24:00,
2013-07-24 15:29:00,76.6,53.7,29.17,East,90,1.6,4.7,45,0.00,,---,0.00,VWS V14.01,2013-07-24 19:29:00,
2013-07-24 15:35:00,77.2,53.6,29.17,East,90,3.8,7.4,44,0.00,,---,0.00,VWS V14.01,2013-07-24 19:35:00,
2013-07-24 15:40:00,77.5,54.5,29.17,SE,135,0.0,3.4,45,0.00,,---,0.00,VWS V14.01,2013-07-24 19:40:00,
2013-07-24 15:46:00,75.7,51.0,29.17,WNW,292,1.6,7.2,42,0.00,,---,0.00,VWS V14.01,2013-07-24 19:46:00,
2013-07-24 15:51:00,75.2,51.2,29.17,ENE,68,4.9,4.9,43,0.00,,---,0.00,VWS V14.01,2013-07-24 19:51:00,
2013-07-24 15:56:00,76.5,53.0,29.20,South,180,3.8,6.0,44,0.00,,---,0.00,VWS V14.01,2013-07-24 19:56:00,
2013-07-24 16:02:00,77.9,54.3,29.20,South,180,3.8,3.8,44,0.00,,---,0.00,VWS V14.01,2013-07-24 20:02:00,
2013-07-24 16:07:00,78.8,55.1,29.20,West,270,1.3,2.5,44,0.00,,---,0.00,VWS V14.01,2013-07-24 20:07:00,
2013-07-24 16:13:00,77.5,51.3,29.20,NW,315,6.5,6.5,40,0.00,,---,0.00,VWS V14.01,2013-07-24 20:13:00,
2013-07-24 16:19:00,75.6,50.2,29.20,SW,225,2.0,3.8,41,0.00,,---,0.00,VWS V14.01,2013-07-24 20:19:00,
2013-07-24 16:24:00,75.2,49.9,29.20,NNE,22,2.7,2.9,41,0.00,,---,0.00,VWS V14.01,2013-07-24 20:24:00,
2013-07-24 16:30:00,76.6,52.5,29.20,North,0,0.0,2.7,43,0.00,,---,0.00,VWS V14.01,2013-07-24 20:30:00,
2013-07-24 16:35:00,77.4,53.1,29.20,SSE,158,4.0,4.3,43,0.00,,---,0.00,VWS V14.01,2013-07-24 20:35:00,
2013-07-24 16:41:00,76.8,50.7,29.20,NNW,338,4.0,10.1,40,0.00,,---,0.00,VWS V14.01,2013-07-24 20:41:00,
2013-07-24 16:46:00,75.6,49.6,29.20,SW,225,3.4,3.8,40,0.00,,---,0.00,VWS V14.01,2013-07-24 20:46:00,
2013-07-24 16:52:00,75.2,49.2,29.20,WSW,248,4.0,4.0,40,0.00,,---,0.00,VWS V14.01,2013-07-24 20:52:00,
2013-07-24 16:57:00,75.2,49.9,29.23,ENE,68,6.3,6.3,41,0.00,,---,0.00,VWS V14.01,2013-07-24 20:57:00,
2013-07-24 17:03:00,75.2,49.9,29.23,ESE,112,1.6,2.9,41,0.00,,---,0.00,VWS V14.01,2013-07-24 21:03:00,
2013-07-24 17:09:00,74.8,48.9,29.23,SSE,158,4.9,7.6,40,0.00,,---,0.00,VWS V14.01,2013-07-24 21:09:00,
2013-07-24 17:14:00,74.3,49.1,29.23,ESE,112,3.1,4.9,41,0.00,,---,0.00,VWS V14.01,2013-07-24 21:14:00,
2013-07-24 17:20:00,74.3,49.1,29.23,NNW,338,3.8,3.8,41,0.00,,---,0.00,VWS V14.01,2013-07-24 21:20:00,
2013-07-24 17:25:00,73.4,48.9,29.23,East,90,2.9,2.9,42,0.00,,---,0.00,VWS V14.01,2013-07-24 21:25:00,
2013-07-24 17:30:00,72.9,48.5,29.23,SSW,202,2.5,5.6,42,0.00,,---,0.00,VWS V14.01,2013-07-24 21:30:00,
2013-07-24 17:36:00,72.3,48.6,29.23,ENE,68,6.0,6.0,43,0.00,,---,0.00,VWS V14.01,2013-07-24 21:36:00,
2013-07-24 17:42:00,71.2,47.0,29.26,SE,135,1.3,5.4,42,0.00,,---,0.00,VWS V14.01,2013-07-24 21:42:00,
2013-07-24 17:47:00,70.9,47.3,29.26,West,270,2.5,3.4,43,0.00,,---,0.00,VWS V14.01,2013-07-24 21:47:00,
2013-07-24 17:53:00,70.5,47.6,29.26,ESE,112,3.8,4.0,44,0.00,,---,0.00,VWS V14.01,2013-07-24 21:53:00,
2013-07-24 17:59:00,71.1,48.7,29.26,South,180,2.2,4.9,45,0.00,,---,0.00,VWS V14.01,2013-07-24 21:59:00,
2013-07-24 18:04:00,70.9,47.3,29.26,WSW,248,6.3,6.3,43,0.00,,---,0.00,VWS V14.01,2013-07-24 22:04:00,
2013-07-24 18:10:00,70.7,47.1,29.26,East,90,6.0,6.0,43,0.00,,---,0.00,VWS V14.01,2013-07-24 22:10:00,
2013-07-24 18:16:00,70.5,47.0,29.26,SSW,202,4.3,6.5,43,0.00,,---,0.00,VWS V14.01,2013-07-24 22:16:00,
2013-07-24 18:21:00,70.5,48.2,29.26,SW,225,2.5,2.7,45,0.00,,---,0.00,VWS V14.01,2013-07-24 22:21:00,
2013-07-24 18:26:00,70.2,47.8,29.26,South,180,2.7,2.9,45,0.00,,---,0.00,VWS V14.01,2013-07-24 22:26:00,
2013-07-24 18:32:00,69.6,47.4,29.26,WSW,248,3.6,6.0,45,0.00,,---,0.00,VWS V14.01,2013-07-24 22:32:00,
2013-07-24 18:37:00,69.3,47.0,29.26,SSE,158,6.0,6.0,45,0.00,,---,0.00,VWS V14.01,2013-07-24 22:37:00,
2013-07-24 18:43:00,69.1,46.9,29.26,ESE,112,5.6,7.4,45,0.00,,---,0.00,VWS V14.01,2013-07-24 22:43:00,
2013-07-24 18:48:00,68.7,46.5,29.26,WSW,248,3.4,3.8,45,0.00,,---,0.00,VWS V14.01,2013-07-24 22:48:00,
2013-07-24 18:53:00,68.4,46.8,29.26,SSW,202,4.9,4.9,46,0.00,,---,0.00,VWS V14.01,2013-07-24 22:53:00,
2013-07-24 18:59:00,67.8,46.9,29.26,West,270,4.3,8.7,47,0.00,,---,0.00,VWS V14.01,2013-07-24 22:59:00,
2013-07-24 19:05:00,66.9,46.0,29.26,North,0,3.6,4.3,47,0.00,,---,0.00,VWS V14.01,2013-07-24 23:05:00,
2013-07-24 19:10:00,66.6,45.7,29.26,South,180,2.5,4.3,47,0.00,,---,0.00,VWS V14.01,2013-07-24 23:10:00,
2013-07-24 19:16:00,65.7,44.9,29.26,SSW,202,4.0,5.8,47,0.00,,---,0.00,VWS V14.01,2013-07-24 23:16:00,
2013-07-24 19:22:00,65.1,45.0,29.26,South,180,7.8,7.8,48,0.00,,---,0.00,VWS V14.01,2013-07-24 23:22:00,
2013-07-24 19:27:00,64.6,45.0,29.29,SSE,158,4.7,6.3,49,0.00,,---,0.00,VWS V14.01,2013-07-24 23:27:00,
2013-07-24 19:33:00,64.2,45.2,29.29,NNW,338,2.9,5.6,50,0.00,,---,0.00,VWS V14.01,2013-07-24 23:33:00,
2013-07-24 19:38:00,63.9,44.9,29.32,NNW,338,7.2,7.2,50,0.00,,---,0.00,VWS V14.01,2013-07-24 23:38:00,
2013-07-24 19:44:00,63.5,45.1,29.32,SW,225,3.8,3.8,51,0.00,,---,0.00,VWS V14.01,2013-07-24 23:44:00,
2013-07-24 19:49:00,63.1,44.7,29.32,ENE,68,4.9,4.9,51,0.00,,---,0.00,VWS V14.01,2013-07-24 23:49:00,
2013-07-24 19:55:00,62.8,44.9,29.32,WSW,248,2.9,3.4,52,0.00,,---,0.00,VWS V14.01,2013-07-24 23:55:00,
2013-07-24 20:00:00,62.4,45.1,29.32,West,270,3.8,5.6,53,0.00,,---,0.00,VWS V14.01,2013-07-25 00:00:00,
2013-07-24 20:05:00,62.2,44.9,29.32,WNW,292,3.6,3.6,53,0.00,,---,0.00,VWS V14.01,2013-07-25 00:05:00,
2013-07-24 20:11:00,61.9,44.6,29.32,SSW,202,2.0,3.8,53,0.00,,---,0.00,VWS V14.01,2013-07-25 00:11:00,
2013-07-24 20:16:00,61.7,44.4,29.32,West,270,5.4,6.3,53,0.00,,---,0.00,VWS V14.01,2013-07-25 00:16:00,
2013-07-24 20:22:00,61.3,44.6,29.32,SSE,158,2.5,4.9,54,0.00,,---,0.00,VWS V14.01,2013-07-25 00:22:00,
2013-07-24 20:27:00,61.2,44.9,29.32,WNW,292,2.2,6.3,55,0.00,,---,0.00,VWS V14.01,2013-07-25 00:27:00,
2013-07-24 20:32:00,61.0,44.7,29.32,SW,225,3.4,6.5,55,0.00,,---,0.00,VWS V14.01,2013-07-25 00:32:00,
2013-07-24 20:38:00,60.8,44.1,29.35,ESE,112,3.6,6.7,54,0.00,,---,0.00,VWS V14.01,2013-07-25 00:38:00,
2013-07-24 20:44:00,60.8,44.1,29.35,SW,225,3.8,6.5,54,0.00,,---,0.00,VWS V14.01,2013-07-25 00:44:00,
2013-07-24 20:50:00,60.6,44.4,29.35,NNW,338,5.4,5.4,55,0.00,,---,0.00,VWS V14.01,2013-07-25 00:50:00,
2013-07-24 20:56:00,60.4,44.2,29.38,SSW,202,3.4,7.6,55,0.00,,---,0.00,VWS V14.01,2013-07-25 00:56:00,
2013-07-24 21:01:00,60.3,44.0,29.38,WSW,248,2.5,3.4,55,0.00,,---,0.00,VWS V14.01,2013-07-25 01:01:00,
2013-07-24 21:07:00,60.1,43.9,29.38,SSE,158,0.9,3.1,55,0.00,,---,0.00,VWS V14.01,2013-07-25 01:07:00,
2013-07-24 21:12:00,60.1,43.9,29.38,WSW,248,7.8,7.8,55,0.00,,---,0.00,VWS V14.01,2013-07-25 01:12:00,
2013-07-24 21:18:00,59.9,44.2,29.38,SW,225,1.3,4.3,56,0.00,,---,0.00,VWS V14.01,2013-07-25 01:18:00,
2013-07-24 21:23:00,59.9,44.2,29.38,SSE,158,2.5,3.4,56,0.00,,---,0.00,VWS V14.01,2013-07-25 01:23:00,
2013-07-24 21:29:00,59.5,43.8,29.38,NW,315,2.5,3.1,56,0.00,,---,0.00,VWS V14.01,2013-07-25 01:29:00,
2013-07-24 21:34:00,59.4,43.7,29.38,SSE,158,0.9,2.0,56,0.00,,---,0.00,VWS V14.01,2013-07-25 01:34:00,
2013-07-24 21:40:00,59.4,43.7,29.41,NE,45,4.0,5.6,56,0.00,,---,0.00,VWS V14.01,2013-07-25 01:40:00,
2013-07-24 21:45:00,59.4,43.7,29.41,SSE,158,6.3,6.3,56,0.00,,---,0.00,VWS V14.01,2013-07-25 01:45:00,
2013-07-24 21:50:00,59.2,43.5,29.41,ESE,112,4.0,5.4,56,0.00,,---,0.00,VWS V14.01,2013-07-25 01:50:00,
2013-07-24 21:56:00,59.2,43.0,29.41,SW,225,2.7,3.6,55,0.00,,---,0.00,VWS V14.01,2013-07-25 01:56:00,
2013-07-24 22:01:00,59.2,43.0,29.41,WSW,248,2.5,2.7,55,0.00,,---,0.00,VWS V14.01,2013-07-25 02:01:00,
2013-07-24 22:07:00,58.8,43.2,29.41,West,270,2.7,3.6,56,0.00,,---,0.00,VWS V14.01,2013-07-25 02:07:00,
2013-07-24 22:12:00,58.8,43.2,29.41,ENE,68,1.6,4.3,56,0.00,,---,0.00,VWS V14.01,2013-07-25 02:12:00,
2013-07-24 22:18:00,58.6,43.0,29.41,WNW,292,2.5,4.7,56,0.00,,---,0.00,VWS V14.01,2013-07-25 02:18:00,
2013-07-24 22:24:00,58.5,42.8,29.41,SSE,158,2.0,4.0,56,0.00,,---,0.00,VWS V14.01,2013-07-25 02:24:00,
2013-07-24 22:29:00,58.3,42.7,29.41,ESE,112,2.2,2.2,56,0.00,,---,0.00,VWS V14.01,2013-07-25 02:29:00,
2013-07-24 22:35:00,58.3,43.1,29.41,SE,135,1.6,4.9,57,0.00,,---,0.00,VWS V14.01,2013-07-25 02:35:00,
2013-07-24 22:40:00,58.1,43.0,29.41,East,90,1.1,7.8,57,0.00,,---,0.00,VWS V14.01,2013-07-25 02:40:00,
2013-07-24 22:46:00,57.9,42.8,29.41,SW,225,2.9,3.4,57,0.00,,---,0.00,VWS V14.01,2013-07-25 02:46:00,
2013-07-24 22:52:00,57.9,42.3,29.41,NNE,22,2.9,3.8,56,0.00,,---,0.00,VWS V14.01,2013-07-25 02:52:00,
2013-07-24 22:57:00,57.7,42.2,29.41,NNE,22,4.3,8.1,56,0.00,,---,0.00,VWS V14.01,2013-07-25 02:57:00,
2013-07-24 23:03:00,57.7,42.2,29.41,NE,45,3.4,3.4,56,0.00,,---,0.00,VWS V14.01,2013-07-25 03:03:00,
2013-07-24 23:08:00,57.6,42.0,29.41,West,270,2.5,2.5,56,0.00,,---,0.00,VWS V14.01,2013-07-25 03:08:00,
2013-07-24 23:14:00,57.6,41.5,29.44,WNW,292,1.3,4.3,55,0.00,,---,0.00,VWS V14.01,2013-07-25 03:14:00,
2013-07-24 23:19:00,57.6,41.5,29.44,South,180,1.3,2.5,55,0.00,,---,0.00,VWS V14.01,2013-07-25 03:19:00,
2013-07-24 23:25:00,57.4,41.4,29.44,South,180,1.1,2.7,55,0.00,,---,0.00,VWS V14.01,2013-07-25 03:25:00,
2013-07-24 23:30:00,57.2,41.7,29.44,NW,315,2.7,2.9,56,0.00,,---,0.00,VWS V14.01,2013-07-25 03:30:00,
2013-07-24 23:35:00,57.0,42.4,29.44,WSW,248,2.5,2.5,58,0.00,,---,0.00,VWS V14.01,2013-07-25 03:35:00,
2013-07-24 23:41:00,56.5,42.8,29.44,SSW,202,1.6,1.6,60,0.00,,---,0.00,VWS V14.01,2013-07-25 03:41:00,
2013-07-24 23:46:00,56.1,42.4,29.44,SSW,202,1.6,1.6,60,0.00,,---,0.00,VWS V14.01,2013-07-25 03:46:00,
2013-07-24 23:52:00,55.9,43.1,29.44,SE,135,1.3,4.0,62,0.00,,---,0.00,VWS V14.01,2013-07-25 03:52:00,
2013-07-24 23:58:00,55.9,42.7,29.44,SSE,158,2.5,2.5,61,0.00,,---,0.00,VWS V14.01,2013-07-25 03:58:00,